Cuernavaca, Mexico

9:19 AM CST on February 14, 2016 (GMT -0600)
Cuernavaca | | Change Station
CLOSE
Current Station
Personal Weather Station
Location: Col. Lomas de Cortes, MORELOS
Elevation: 5365 ft
Nearby Weather Stations

Elev 5365 ft 18.95 °N, 99.22 °W | Updated 14 minutes ago

Clear
Clear
63.7 °F
Feels Like 63.7 °F
N
1.0
Wind Variable Wind from West
Gusts 4.0 mph

Today
High -- | Low -- °F
--% Chance of Precip.
Yesterday
High -- | Low -- °F
Precip. -- in
Pressure 30.18 in
Visibility 10.0 miles
Clouds Clear
Dew Point 44 °F
Humidity 49%
Rainfall 0.00 in
Snow Depth Not available.
7:05 AM 6:36 PM
Waxing Crescent, 42% visible
METAR MMCB 141445Z 00000KT 10SM SKC 17/04 A3018 RMK CI
Pressure 30.18 in
Visibility 10.0 miles
Clouds Clear
Dew Point 44 °F
Humidity 49%
Rainfall 0.00 in
Snow Depth Not available.
7:05 AM 6:36 PM
Waxing Crescent, 42% visible
METAR MMCB 141445Z 00000KT 10SM SKC 17/04 A3018 RMK CI

10-Day Weather Forecast

No radar image for this location.
×

Almanac

Astronomy

Feb. 14, 2016 Rise Set
Actual Time
Civil Twilight
Nautical Twilight
Astronomical Twilight
Moon
Length of Visible Light
Length of Day
Tomorrow will be .
, % of the Moon is Illuminated

Today's Extremes

Country Highs Country Lows

Community

WunderPhotos

Upload Photos

1,892,788 photos uploaded!

WunderBlog® & News

Nearby

Air Quality

  Air Quality AQ Index Pollutant
Not available.

Snow Depth

Station Depth Elevation

Earthquake Activity

City Distance Mag. Time & Date
Minimum magnitude displayed is 2.5.

Coastal Water Temperatures

Place Temperature

Stations

Nearby Weather Stations

Station Location Temp. Windchill Dew Point Humidity Wind Precip. Elev Updated Type